sensor_id;sensor_type;location;lat;lon;timestamp;P1;durP1;ratioP1;P2;durP2;ratioP2
32894;SDS011;19251;49.484;8.260;2023-11-18T00:02:58;3.50;;;2.40;;
32894;SDS011;19251;49.484;8.260;2023-11-18T00:13:03;4.15;;;3.00;;
32894;SDS011;19251;49.484;8.260;2023-11-18T00:18:05;7.15;;;3.00;;
32894;SDS011;19251;49.484;8.260;2023-11-18T00:23:08;6.70;;;2.30;;
32894;SDS011;19251;49.484;8.260;2023-11-18T00:28:11;5.18;;;2.15;;
32894;SDS011;19251;49.484;8.260;2023-11-18T00:38:15;6.60;;;3.30;;
32894;SDS011;19251;49.484;8.260;2023-11-18T00:43:17;5.40;;;3.55;;
32894;SDS011;19251;49.484;8.260;2023-11-18T00:48:20;3.85;;;2.40;;
32894;SDS011;19251;49.484;8.260;2023-11-18T00:53:22;3.58;;;3.03;;
32894;SDS011;19251;49.484;8.260;2023-11-18T00:58:24;5.40;;;4.22;;
32894;SDS011;19251;49.484;8.260;2023-11-18T01:03:27;4.87;;;3.42;;
32894;SDS011;19251;49.484;8.260;2023-11-18T01:08:29;5.15;;;3.15;;
32894;SDS011;19251;49.484;8.260;2023-11-18T01:13:31;9.32;;;3.53;;
32894;SDS011;19251;49.484;8.260;2023-11-18T01:18:34;5.15;;;3.70;;
32894;SDS011;19251;49.484;8.260;2023-11-18T01:23:36;6.32;;;4.07;;
32894;SDS011;19251;49.484;8.260;2023-11-18T01:28:40;5.50;;;3.25;;
32894;SDS011;19251;49.484;8.260;2023-11-18T01:33:47;3.90;;;3.25;;
32894;SDS011;19251;49.484;8.260;2023-11-18T01:38:51;15.05;;;4.85;;
32894;SDS011;19251;49.484;8.260;2023-11-18T01:43:56;6.70;;;4.10;;
32894;SDS011;19251;49.484;8.260;2023-11-18T01:48:58;20.17;;;5.85;;
32894;SDS011;19251;49.484;8.260;2023-11-18T01:54:00;5.32;;;3.95;;
32894;SDS011;19251;49.484;8.260;2023-11-18T01:59:05;6.00;;;3.70;;
32894;SDS011;19251;49.484;8.260;2023-11-18T02:04:11;5.70;;;4.20;;
32894;SDS011;19251;49.484;8.260;2023-11-18T02:09:15;4.20;;;3.25;;
32894;SDS011;19251;49.484;8.260;2023-11-18T02:14:29;6.10;;;3.57;;
32894;SDS011;19251;49.484;8.260;2023-11-18T02:19:33;8.00;;;3.80;;
32894;SDS011;19251;49.484;8.260;2023-11-18T02:24:36;7.13;;;3.90;;
32894;SDS011;19251;49.484;8.260;2023-11-18T02:29:40;5.10;;;3.62;;
32894;SDS011;19251;49.484;8.260;2023-11-18T02:34:45;5.85;;;3.80;;
32894;SDS011;19251;49.484;8.260;2023-11-18T02:40:04;12.83;;;4.67;;
32894;SDS011;19251;49.484;8.260;2023-11-18T02:45:15;11.50;;;4.33;;
32894;SDS011;19251;49.484;8.260;2023-11-18T02:50:19;6.67;;;3.60;;
32894;SDS011;19251;49.484;8.260;2023-11-18T02:55:22;9.40;;;4.00;;
32894;SDS011;19251;49.484;8.260;2023-11-18T03:00:26;8.55;;;4.35;;
32894;SDS011;19251;49.484;8.260;2023-11-18T03:05:30;6.55;;;4.95;;
32894;SDS011;19251;49.484;8.260;2023-11-18T03:10:32;4.60;;;3.60;;
32894;SDS011;19251;49.484;8.260;2023-11-18T03:15:37;5.10;;;4.60;;
32894;SDS011;19251;49.484;8.260;2023-11-18T03:25:41;5.90;;;4.27;;
32894;SDS011;19251;49.484;8.260;2023-11-18T03:30:43;7.15;;;3.22;;
32894;SDS011;19251;49.484;8.260;2023-11-18T03:35:46;5.37;;;4.12;;
32894;SDS011;19251;49.484;8.260;2023-11-18T03:40:48;4.78;;;4.22;;
32894;SDS011;19251;49.484;8.260;2023-11-18T03:45:50;8.52;;;4.22;;
32894;SDS011;19251;49.484;8.260;2023-11-18T03:50:58;5.05;;;3.30;;
32894;SDS011;19251;49.484;8.260;2023-11-18T03:56:01;9.25;;;3.80;;
32894;SDS011;19251;49.484;8.260;2023-11-18T04:01:04;8.35;;;4.20;;
32894;SDS011;19251;49.484;8.260;2023-11-18T04:06:07;4.45;;;3.65;;
32894;SDS011;19251;49.484;8.260;2023-11-18T04:11:10;6.70;;;3.70;;
32894;SDS011;19251;49.484;8.260;2023-11-18T04:21:17;4.63;;;3.43;;
32894;SDS011;19251;49.484;8.260;2023-11-18T04:26:19;5.35;;;4.15;;
32894;SDS011;19251;49.484;8.260;2023-11-18T04:31:21;7.57;;;4.72;;
32894;SDS011;19251;49.484;8.260;2023-11-18T04:36:23;4.25;;;3.53;;
32894;SDS011;19251;49.484;8.260;2023-11-18T04:41:28;7.63;;;3.70;;
32894;SDS011;19251;49.484;8.260;2023-11-18T04:46:33;4.70;;;4.10;;
32894;SDS011;19251;49.484;8.260;2023-11-18T04:56:37;3.60;;;3.17;;
32894;SDS011;19251;49.484;8.260;2023-11-18T05:01:40;5.80;;;3.55;;
32894;SDS011;19251;49.484;8.260;2023-11-18T05:06:42;4.93;;;3.28;;
32894;SDS011;19251;49.484;8.260;2023-11-18T05:11:44;3.85;;;3.40;;
32894;SDS011;19251;49.484;8.260;2023-11-18T05:16:46;4.45;;;3.08;;
32894;SDS011;19251;49.484;8.260;2023-11-18T05:21:49;3.45;;;3.08;;
32894;SDS011;19251;49.484;8.260;2023-11-18T05:26:52;4.33;;;3.23;;
32894;SDS011;19251;49.484;8.260;2023-11-18T05:36:56;4.87;;;2.77;;
32894;SDS011;19251;49.484;8.260;2023-11-18T05:42:01;3.23;;;2.93;;
32894;SDS011;19251;49.484;8.260;2023-11-18T05:47:03;2.95;;;2.62;;
32894;SDS011;19251;49.484;8.260;2023-11-18T05:52:05;4.35;;;3.50;;
32894;SDS011;19251;49.484;8.260;2023-11-18T05:57:08;7.27;;;3.20;;
32894;SDS011;19251;49.484;8.260;2023-11-18T06:02:10;4.28;;;2.92;;
32894;SDS011;19251;49.484;8.260;2023-11-18T06:07:21;3.70;;;2.65;;
32894;SDS011;19251;49.484;8.260;2023-11-18T06:12:24;6.23;;;3.40;;
32894;SDS011;19251;49.484;8.260;2023-11-18T06:17:28;4.20;;;3.80;;
32894;SDS011;19251;49.484;8.260;2023-11-18T06:22:30;9.23;;;5.22;;
32894;SDS011;19251;49.484;8.260;2023-11-18T06:27:33;9.77;;;5.95;;
32894;SDS011;19251;49.484;8.260;2023-11-18T06:32:35;9.55;;;6.78;;
32894;SDS011;19251;49.484;8.260;2023-11-18T06:37:38;11.15;;;8.10;;
32894;SDS011;19251;49.484;8.260;2023-11-18T06:42:40;9.77;;;7.75;;
32894;SDS011;19251;49.484;8.260;2023-11-18T06:47:43;11.05;;;7.85;;
32894;SDS011;19251;49.484;8.260;2023-11-18T06:52:47;8.90;;;6.55;;
32894;SDS011;19251;49.484;8.260;2023-11-18T07:02:52;13.10;;;7.05;;
32894;SDS011;19251;49.484;8.260;2023-11-18T07:07:57;10.80;;;7.10;;
32894;SDS011;19251;49.484;8.260;2023-11-18T07:12:59;9.15;;;6.60;;
32894;SDS011;19251;49.484;8.260;2023-11-18T07:18:02;13.38;;;7.20;;
32894;SDS011;19251;49.484;8.260;2023-11-18T07:23:04;8.15;;;6.45;;
32894;SDS011;19251;49.484;8.260;2023-11-18T07:28:07;9.53;;;5.93;;
32894;SDS011;19251;49.484;8.260;2023-11-18T07:33:10;6.97;;;5.60;;
32894;SDS011;19251;49.484;8.260;2023-11-18T07:38:13;8.25;;;6.30;;
32894;SDS011;19251;49.484;8.260;2023-11-18T07:43:16;7.90;;;5.50;;
32894;SDS011;19251;49.484;8.260;2023-11-18T07:48:18;9.93;;;4.70;;
32894;SDS011;19251;49.484;8.260;2023-11-18T07:53:22;7.37;;;5.00;;
32894;SDS011;19251;49.484;8.260;2023-11-18T07:58:24;7.60;;;6.00;;
32894;SDS011;19251;49.484;8.260;2023-11-18T08:03:28;8.67;;;5.80;;
32894;SDS011;19251;49.484;8.260;2023-11-18T08:08:36;11.53;;;6.43;;
32894;SDS011;19251;49.484;8.260;2023-11-18T08:13:41;8.00;;;6.90;;
32894;SDS011;19251;49.484;8.260;2023-11-18T08:18:43;9.23;;;7.18;;
32894;SDS011;19251;49.484;8.260;2023-11-18T08:23:46;8.43;;;5.87;;
32894;SDS011;19251;49.484;8.260;2023-11-18T08:28:52;9.07;;;6.10;;
32894;SDS011;19251;49.484;8.260;2023-11-18T08:33:54;15.73;;;7.57;;
32894;SDS011;19251;49.484;8.260;2023-11-18T08:38:56;16.20;;;8.25;;
32894;SDS011;19251;49.484;8.260;2023-11-18T08:43:59;15.45;;;7.45;;
32894;SDS011;19251;49.484;8.260;2023-11-18T08:49:21;10.85;;;6.40;;
32894;SDS011;19251;49.484;8.260;2023-11-18T08:54:23;14.38;;;7.97;;
32894;SDS011;19251;49.484;8.260;2023-11-18T08:59:38;7.50;;;5.95;;
32894;SDS011;19251;49.484;8.260;2023-11-18T09:04:40;8.73;;;6.75;;
32894;SDS011;19251;49.484;8.260;2023-11-18T09:09:45;8.35;;;7.00;;
32894;SDS011;19251;49.484;8.260;2023-11-18T09:19:53;11.85;;;7.80;;
32894;SDS011;19251;49.484;8.260;2023-11-18T09:24:56;12.25;;;6.18;;
32894;SDS011;19251;49.484;8.260;2023-11-18T09:29:58;8.13;;;7.32;;
32894;SDS011;19251;49.484;8.260;2023-11-18T09:35:01;11.25;;;7.30;;
32894;SDS011;19251;49.484;8.260;2023-11-18T09:40:13;11.83;;;7.70;;
32894;SDS011;19251;49.484;8.260;2023-11-18T09:45:15;10.45;;;6.80;;
32894;SDS011;19251;49.484;8.260;2023-11-18T09:50:21;20.03;;;7.40;;
32894;SDS011;19251;49.484;8.260;2023-11-18T09:55:32;9.93;;;6.77;;
32894;SDS011;19251;49.484;8.260;2023-11-18T10:01:01;9.47;;;6.10;;
32894;SDS011;19251;49.484;8.260;2023-11-18T10:06:05;13.95;;;6.75;;
32894;SDS011;19251;49.484;8.260;2023-11-18T10:11:11;10.05;;;5.90;;
32894;SDS011;19251;49.484;8.260;2023-11-18T10:16:15;10.25;;;5.80;;
32894;SDS011;19251;49.484;8.260;2023-11-18T10:21:20;7.85;;;5.50;;
32894;SDS011;19251;49.484;8.260;2023-11-18T10:26:42;8.00;;;5.35;;
32894;SDS011;19251;49.484;8.260;2023-11-18T10:31:46;6.95;;;4.50;;
32894;SDS011;19251;49.484;8.260;2023-11-18T10:36:58;10.63;;;5.03;;
32894;SDS011;19251;49.484;8.260;2023-11-18T10:42:04;7.40;;;5.10;;
32894;SDS011;19251;49.484;8.260;2023-11-18T10:47:06;6.47;;;4.47;;
32894;SDS011;19251;49.484;8.260;2023-11-18T10:52:13;6.75;;;4.50;;
32894;SDS011;19251;49.484;8.260;2023-11-18T10:57:18;7.73;;;4.37;;
32894;SDS011;19251;49.484;8.260;2023-11-18T11:02:20;7.40;;;5.22;;
32894;SDS011;19251;49.484;8.260;2023-11-18T11:07:25;6.15;;;4.35;;
32894;SDS011;19251;49.484;8.260;2023-11-18T11:12:35;11.50;;;5.20;;
32894;SDS011;19251;49.484;8.260;2023-11-18T11:17:42;10.82;;;5.37;;
32894;SDS011;19251;49.484;8.260;2023-11-18T11:28:21;6.03;;;4.73;;
32894;SDS011;19251;49.484;8.260;2023-11-18T11:33:40;6.47;;;4.30;;
32894;SDS011;19251;49.484;8.260;2023-11-18T11:38:47;8.15;;;5.65;;
32894;SDS011;19251;49.484;8.260;2023-11-18T11:43:52;8.70;;;5.60;;
32894;SDS011;19251;49.484;8.260;2023-11-18T11:49:03;7.05;;;4.80;;
32894;SDS011;19251;49.484;8.260;2023-11-18T11:54:34;4.55;;;4.10;;
32894;SDS011;19251;49.484;8.260;2023-11-18T12:04:46;6.27;;;4.43;;
32894;SDS011;19251;49.484;8.260;2023-11-18T12:10:01;4.15;;;3.30;;
32894;SDS011;19251;49.484;8.260;2023-11-18T12:15:08;6.45;;;4.05;;
32894;SDS011;19251;49.484;8.260;2023-11-18T12:26:37;8.60;;;4.70;;
32894;SDS011;19251;49.484;8.260;2023-11-18T12:31:38;9.30;;;3.95;;
32894;SDS011;19251;49.484;8.260;2023-11-18T12:42:12;7.65;;;3.95;;
32894;SDS011;19251;49.484;8.260;2023-11-18T12:47:25;6.45;;;4.10;;
32894;SDS011;19251;49.484;8.260;2023-11-18T12:52:33;10.55;;;4.30;;
32894;SDS011;19251;49.484;8.260;2023-11-18T12:57:36;8.10;;;4.10;;
32894;SDS011;19251;49.484;8.260;2023-11-18T13:02:40;8.65;;;3.65;;
32894;SDS011;19251;49.484;8.260;2023-11-18T13:07:42;4.18;;;3.08;;
32894;SDS011;19251;49.484;8.260;2023-11-18T13:12:45;4.37;;;3.00;;
32894;SDS011;19251;49.484;8.260;2023-11-18T13:17:58;7.63;;;3.53;;
32894;SDS011;19251;49.484;8.260;2023-11-18T13:28:10;6.75;;;2.90;;
32894;SDS011;19251;49.484;8.260;2023-11-18T13:33:13;8.50;;;4.70;;
32894;SDS011;19251;49.484;8.260;2023-11-18T13:38:15;8.55;;;5.28;;
32894;SDS011;19251;49.484;8.260;2023-11-18T13:43:20;11.05;;;4.55;;
32894;SDS011;19251;49.484;8.260;2023-11-18T13:48:24;6.75;;;3.10;;
32894;SDS011;19251;49.484;8.260;2023-11-18T13:53:26;5.68;;;2.92;;
32894;SDS011;19251;49.484;8.260;2023-11-18T13:58:28;6.43;;;3.70;;
32894;SDS011;19251;49.484;8.260;2023-11-18T14:03:30;6.30;;;3.53;;
32894;SDS011;19251;49.484;8.260;2023-11-18T14:08:33;6.75;;;3.40;;
32894;SDS011;19251;49.484;8.260;2023-11-18T14:13:36;7.73;;;2.90;;
32894;SDS011;19251;49.484;8.260;2023-11-18T14:18:39;10.05;;;3.30;;
32894;SDS011;19251;49.484;8.260;2023-11-18T14:23:43;9.60;;;3.75;;
32894;SDS011;19251;49.484;8.260;2023-11-18T14:28:46;12.85;;;3.85;;
32894;SDS011;19251;49.484;8.260;2023-11-18T14:33:48;6.10;;;3.03;;
32894;SDS011;19251;49.484;8.260;2023-11-18T14:38:50;4.55;;;2.55;;
32894;SDS011;19251;49.484;8.260;2023-11-18T14:43:53;10.05;;;3.55;;
32894;SDS011;19251;49.484;8.260;2023-11-18T14:48:55;8.90;;;3.90;;
32894;SDS011;19251;49.484;8.260;2023-11-18T14:53:58;6.90;;;3.85;;
32894;SDS011;19251;49.484;8.260;2023-11-18T14:59:00;6.55;;;3.47;;
32894;SDS011;19251;49.484;8.260;2023-11-18T15:04:03;13.80;;;5.50;;
32894;SDS011;19251;49.484;8.260;2023-11-18T15:09:08;5.75;;;3.50;;
32894;SDS011;19251;49.484;8.260;2023-11-18T15:14:12;9.40;;;3.75;;
32894;SDS011;19251;49.484;8.260;2023-11-18T15:19:15;11.05;;;3.60;;
32894;SDS011;19251;49.484;8.260;2023-11-18T15:24:17;9.05;;;2.10;;
32894;SDS011;19251;49.484;8.260;2023-11-18T15:29:19;4.95;;;2.50;;
32894;SDS011;19251;49.484;8.260;2023-11-18T15:34:22;7.37;;;2.95;;
32894;SDS011;19251;49.484;8.260;2023-11-18T15:39:24;10.73;;;2.70;;
32894;SDS011;19251;49.484;8.260;2023-11-18T15:49:30;15.15;;;5.55;;
32894;SDS011;19251;49.484;8.260;2023-11-18T15:54:32;9.63;;;4.97;;
32894;SDS011;19251;49.484;8.260;2023-11-18T15:59:35;16.30;;;4.30;;
32894;SDS011;19251;49.484;8.260;2023-11-18T16:04:37;18.45;;;7.32;;
32894;SDS011;19251;49.484;8.260;2023-11-18T16:09:39;7.70;;;4.20;;
32894;SDS011;19251;49.484;8.260;2023-11-18T16:14:41;4.95;;;2.92;;
32894;SDS011;19251;49.484;8.260;2023-11-18T16:19:47;7.55;;;4.00;;
32894;SDS011;19251;49.484;8.260;2023-11-18T16:29:52;5.65;;;3.30;;
32894;SDS011;19251;49.484;8.260;2023-11-18T16:34:55;10.77;;;4.45;;
32894;SDS011;19251;49.484;8.260;2023-11-18T16:39:57;13.13;;;5.87;;
32894;SDS011;19251;49.484;8.260;2023-11-18T16:45:00;18.60;;;10.70;;
32894;SDS011;19251;49.484;8.260;2023-11-18T16:50:03;17.50;;;7.20;;
32894;SDS011;19251;49.484;8.260;2023-11-18T16:55:07;25.63;;;13.90;;
32894;SDS011;19251;49.484;8.260;2023-11-18T17:00:12;21.90;;;11.65;;
32894;SDS011;19251;49.484;8.260;2023-11-18T17:05:19;15.77;;;8.63;;
32894;SDS011;19251;49.484;8.260;2023-11-18T17:10:21;20.10;;;9.20;;
32894;SDS011;19251;49.484;8.260;2023-11-18T17:15:24;19.70;;;11.33;;
32894;SDS011;19251;49.484;8.260;2023-11-18T17:20:27;23.02;;;11.52;;
32894;SDS011;19251;49.484;8.260;2023-11-18T17:25:29;35.28;;;15.65;;
32894;SDS011;19251;49.484;8.260;2023-11-18T17:30:31;19.70;;;10.95;;
32894;SDS011;19251;49.484;8.260;2023-11-18T17:35:38;16.57;;;7.20;;
32894;SDS011;19251;49.484;8.260;2023-11-18T17:40:42;6.97;;;4.30;;
32894;SDS011;19251;49.484;8.260;2023-11-18T17:45:45;7.53;;;4.27;;
32894;SDS011;19251;49.484;8.260;2023-11-18T17:50:48;9.30;;;4.23;;
32894;SDS011;19251;49.484;8.260;2023-11-18T17:55:54;9.80;;;4.25;;
32894;SDS011;19251;49.484;8.260;2023-11-18T18:00:56;9.07;;;4.82;;
32894;SDS011;19251;49.484;8.260;2023-11-18T18:06:00;6.33;;;4.27;;
32894;SDS011;19251;49.484;8.260;2023-11-18T18:11:02;11.18;;;4.95;;
32894;SDS011;19251;49.484;8.260;2023-11-18T18:21:07;7.05;;;4.05;;
32894;SDS011;19251;49.484;8.260;2023-11-18T18:26:09;6.68;;;3.90;;
32894;SDS011;19251;49.484;8.260;2023-11-18T18:31:12;6.83;;;4.37;;
32894;SDS011;19251;49.484;8.260;2023-11-18T18:36:14;7.37;;;4.47;;
32894;SDS011;19251;49.484;8.260;2023-11-18T18:41:16;28.65;;;17.70;;
32894;SDS011;19251;49.484;8.260;2023-11-18T18:51:21;9.37;;;4.73;;
32894;SDS011;19251;49.484;8.260;2023-11-18T18:56:26;7.70;;;5.30;;
32894;SDS011;19251;49.484;8.260;2023-11-18T19:01:29;8.53;;;3.37;;
32894;SDS011;19251;49.484;8.260;2023-11-18T19:06:32;6.33;;;3.43;;
32894;SDS011;19251;49.484;8.260;2023-11-18T19:11:35;9.07;;;5.57;;
32894;SDS011;19251;49.484;8.260;2023-11-18T19:16:38;13.43;;;5.33;;
32894;SDS011;19251;49.484;8.260;2023-11-18T19:21:44;7.77;;;4.13;;
32894;SDS011;19251;49.484;8.260;2023-11-18T19:26:47;4.77;;;3.37;;
32894;SDS011;19251;49.484;8.260;2023-11-18T19:31:50;4.90;;;3.30;;
32894;SDS011;19251;49.484;8.260;2023-11-18T19:36:52;6.32;;;3.33;;
32894;SDS011;19251;49.484;8.260;2023-11-18T19:41:54;6.57;;;3.55;;
32894;SDS011;19251;49.484;8.260;2023-11-18T19:46:56;10.00;;;3.70;;
32894;SDS011;19251;49.484;8.260;2023-11-18T19:51:58;4.93;;;2.78;;
32894;SDS011;19251;49.484;8.260;2023-11-18T19:57:00;6.05;;;2.50;;
32894;SDS011;19251;49.484;8.260;2023-11-18T20:02:03;14.13;;;4.53;;
32894;SDS011;19251;49.484;8.260;2023-11-18T20:07:05;48.42;;;26.27;;
32894;SDS011;19251;49.484;8.260;2023-11-18T20:12:07;50.35;;;26.62;;
32894;SDS011;19251;49.484;8.260;2023-11-18T20:17:10;27.35;;;14.40;;
32894;SDS011;19251;49.484;8.260;2023-11-18T20:22:12;34.90;;;16.35;;
32894;SDS011;19251;49.484;8.260;2023-11-18T20:27:14;26.35;;;13.85;;
32894;SDS011;19251;49.484;8.260;2023-11-18T20:32:16;48.50;;;27.48;;
32894;SDS011;19251;49.484;8.260;2023-11-18T20:37:19;18.95;;;11.75;;
32894;SDS011;19251;49.484;8.260;2023-11-18T20:42:21;11.90;;;6.93;;
32894;SDS011;19251;49.484;8.260;2023-11-18T20:47:25;16.50;;;10.25;;
32894;SDS011;19251;49.484;8.260;2023-11-18T20:52:27;10.55;;;4.62;;
32894;SDS011;19251;49.484;8.260;2023-11-18T20:57:29;7.97;;;3.85;;
32894;SDS011;19251;49.484;8.260;2023-11-18T21:07:38;3.45;;;2.20;;
32894;SDS011;19251;49.484;8.260;2023-11-18T21:12:41;7.25;;;2.62;;
32894;SDS011;19251;49.484;8.260;2023-11-18T21:24:00;9.13;;;3.20;;
32894;SDS011;19251;49.484;8.260;2023-11-18T21:29:05;3.53;;;2.67;;
32894;SDS011;19251;49.484;8.260;2023-11-18T21:34:07;67.47;;;33.00;;
32894;SDS011;19251;49.484;8.260;2023-11-18T21:39:09;72.57;;;33.33;;
32894;SDS011;19251;49.484;8.260;2023-11-18T21:44:15;168.55;;;67.75;;
32894;SDS011;19251;49.484;8.260;2023-11-18T21:49:18;142.43;;;55.53;;
32894;SDS011;19251;49.484;8.260;2023-11-18T21:54:20;256.60;;;111.40;;
32894;SDS011;19251;49.484;8.260;2023-11-18T21:59:22;182.18;;;81.07;;
32894;SDS011;19251;49.484;8.260;2023-11-18T22:04:27;149.70;;;61.20;;
32894;SDS011;19251;49.484;8.260;2023-11-18T22:09:29;85.20;;;38.50;;
32894;SDS011;19251;49.484;8.260;2023-11-18T22:14:32;91.50;;;41.45;;
32894;SDS011;19251;49.484;8.260;2023-11-18T22:19:34;100.90;;;43.50;;
32894;SDS011;19251;49.484;8.260;2023-11-18T22:24:37;50.45;;;22.08;;
32894;SDS011;19251;49.484;8.260;2023-11-18T22:29:43;37.70;;;14.90;;
32894;SDS011;19251;49.484;8.260;2023-11-18T22:34:45;126.75;;;54.60;;
32894;SDS011;19251;49.484;8.260;2023-11-18T22:39:48;41.53;;;16.12;;
32894;SDS011;19251;49.484;8.260;2023-11-18T22:44:50;42.05;;;17.75;;
32894;SDS011;19251;49.484;8.260;2023-11-18T22:49:53;20.73;;;9.48;;
32894;SDS011;19251;49.484;8.260;2023-11-18T22:54:55;17.27;;;6.87;;
32894;SDS011;19251;49.484;8.260;2023-11-18T22:59:57;13.27;;;7.15;;
32894;SDS011;19251;49.484;8.260;2023-11-18T23:05:00;9.02;;;3.47;;
32894;SDS011;19251;49.484;8.260;2023-11-18T23:10:07;9.70;;;4.70;;
32894;SDS011;19251;49.484;8.260;2023-11-18T23:15:10;2.80;;;1.30;;
32894;SDS011;19251;49.484;8.260;2023-11-18T23:20:14;4.10;;;1.40;;
32894;SDS011;19251;49.484;8.260;2023-11-18T23:25:17;4.45;;;2.15;;
32894;SDS011;19251;49.484;8.260;2023-11-18T23:30:24;5.05;;;2.05;;
32894;SDS011;19251;49.484;8.260;2023-11-18T23:35:27;2.40;;;1.08;;
32894;SDS011;19251;49.484;8.260;2023-11-18T23:40:30;3.75;;;1.50;;
32894;SDS011;19251;49.484;8.260;2023-11-18T23:45:34;2.30;;;1.10;;
32894;SDS011;19251;49.484;8.260;2023-11-18T23:55:39;3.00;;;0.90;;
